Sunday, October 21, 2018, 1:59 AM EDT
Back to Local

KPEO, Penn Yan Airport

Location: Penn Yan, NY, United States Lat: 42.65
Local Time: 1:59 AM EDT ( 5:59 GMT) Lon: -77.05
Time Zone: US/Eastern Elev: 977 ft

Show me the last for .
Show Decoded

2018-10-21 00:53 METAR KPEO 210453Z AUTO 31007KT 10SM BKN049 OVC070 06/03 A2974 RMK AO2 SLP074
                 T00560033 401390056 =
2018-10-20 23:53 METAR KPEO 210353Z AUTO 30008G14KT 10SM FEW020 SCT033 BKN046 06/04 A2972 RMK AO2
                 RAB01E16 SLP067 P0001 T00610039 =
2018-10-20 22:53 METAR KPEO 210253Z AUTO 23006KT 10SM FEW049 BKN060 OVC110 06/04 A2970 RMK AO2
                 SLP060 60000 T00610039 53016 =
2018-10-20 21:53 METAR KPEO 210153Z AUTO 21007KT 10SM SCT039 BKN050 OVC060 06/04 A2968 RMK AO2
                 RAE51 SLP054 P0000 T00610039 =
2018-10-20 20:53 METAR KPEO 210053Z AUTO 23007KT 10SM -RA FEW039 BKN060 OVC070 06/04 A2967 RMK
                 AO2 RAB52 SLP050 P0000 T00610044 =
2018-10-20 19:53 METAR KPEO 202353Z AUTO 22007KT 10SM OVC060 07/04 A2965 RMK AO2 RAE10 SLP045
                 P0000 60016 T00670044 10133 20061 55001 =
2018-10-20 18:53 METAR KPEO 202253Z AUTO 20004KT 10SM -RA OVC042 06/04 A2965 RMK AO2 RAE08B28
                 SLP044 P0000 T00610044 =
2018-10-20 17:53 METAR KPEO 202153Z AUTO 15003KT 9SM -RA OVC038 06/04 A2965 RMK AO2 SLP043 P0006
                 T00610039 =
2018-10-20 17:06 METAR KPEO 202106Z AUTO 31007KT 5SM -RA BR FEW009 OVC032 06/04 A2965 RMK AO2
                 P0003 T00610044 =
2018-10-20 16:58 METAR KPEO 202058Z AUTO 32008KT 2 1/2SM RA BR FEW009 FEW013 OVC030 06/04 A2966
                 RMK AO2 P0002 T00610044 =
2018-10-20 16:53 METAR KPEO 202053Z AUTO VRB05KT 1 3/4SM +RA BR FEW009 OVC028 06/05 A2966 RMK AO2
                 RAB13 TSB27E42 SLP046 P0010 60010 T00610050 53010 =
2018-10-20 16:48 METAR KPEO 202048Z AUTO VRB06G15KT 2 1/2SM +RA BR FEW009 SCT013 OVC028 07/05
                 A2966 RMK AO2 RAB13 TSB27E42 P0008 =
2018-10-20 16:39 METAR KPEO 202039Z AUTO 29008G16KT 260V330 5SM -TSRA BR FEW009 BKN029 OVC035
                 07/05 A2966 RMK AO2 RAB13 TSB27 P0006 T00720050 =
2018-10-20 16:27 METAR KPEO 202027Z AUTO 26010G23KT 2 1/2SM +TSRA FEW026 OVC035 08/04 A2965 RMK
                 AO2 VIS 1 1/4V5 RAB13 TSB27 PRESRR P0004 T00780044 =
2018-10-20 15:53 METAR KPEO 201953Z AUTO 34005KT 10SM BKN070 OVC095 11/04 A2961 RMK AO2 SLP029
                 T01060039 =
2018-10-20 14:53 METAR KPEO 201853Z AUTO VRB06KT 10SM FEW036 BKN070 BKN090 12/04 A2963 RMK AO2
                 RAE1754 SLP033 P0000 T01170039 =
2018-10-20 13:53 METAR KPEO 201753Z AUTO 25009KT 10SM -RA FEW047 BKN070 BKN090 13/04 A2964 RMK
                 AO2 LTG DSNT SE RAB45 SLP035 P0000 60000 T01280044 10139 20094 58017 =
2018-10-20 12:53 METAR KPEO 201653Z AUTO 27010KT 10SM SCT039 BKN048 BKN060 11/04 A2966 RMK AO2
                 RAB39E51 SLP045 P0000 T01110039 =
2018-10-20 11:53 METAR KPEO 201553Z AUTO 26014G19KT 10SM CLR 13/03 A2968 RMK AO2 SLP050 T01280033
                 =
2018-10-20 10:53 METAR KPEO 201453Z AUTO 28008KT 10SM FEW037 12/04 A2969 RMK AO2 SLP053 60000
                 T01220044 50009 =
2018-10-20 09:53 METAR KPEO 201353Z AUTO 26008KT 10SM FEW050 SCT095 11/06 A2970 RMK AO2 SLP056
                 T01060056 =
2018-10-20 09:01 METAR KPEO 201301Z AUTO 27008KT 10SM SCT026 SCT049 OVC060 10/08 A2968 RMK AO2
                 T01000078 =
2018-10-20 08:53 METAR KPEO 201253Z AUTO 26007KT 10SM BKN026 OVC060 10/07 A2968 RMK AO2
                 RAB01E18B35E47 SLP053 P0000 T01000072 =
2018-10-20 08:39 METAR KPEO 201239Z AUTO 24007KT 10SM -RA BKN026 BKN038 OVC047 10/07 A2968 RMK
                 AO2 RAB01E18B35 P0000 T01000072 =
2018-10-20 08:08 METAR KPEO 201208Z AUTO 22009KT 6SM -RA SCT026 BKN034 OVC042 09/07 A2966 RMK AO2
                 RAB01 P0000 T00940067 =
2018-10-20 07:53 METAR KPEO 201153Z AUTO 22007KT 10SM BKN028 OVC035 10/07 A2966 RMK AO2
                 RAB1055E38 SLP044 P0000 60000 T01000067 10111 20094 51009 =
2018-10-20 07:51 METAR KPEO 201151Z AUTO 21007KT 10SM BKN028 OVC033 10/07 A2966 RMK AO2
                 RAB1055E38 P0000 =
2018-10-20 07:15 METAR KPEO 201115Z AUTO 23009KT 10SM -RA FEW025 BKN039 OVC046 10/06 A2965 RMK
                 AO2 RAB1055 P0000 T01000061 =
2018-10-20 06:53 METAR KPEO 201053Z AUTO 22010KT 10SM BKN025 BKN030 OVC050 11/06 A2964 RMK AO2
                 SLP039 T01060056 =
2018-10-20 06:14 METAR KPEO 201014Z AUTO 21011G18KT 10SM OVC028 11/05 A2963 RMK AO2 T01060050 =
2018-10-20 05:53 METAR KPEO 200953Z AUTO 21013G19KT 10SM OVC031 11/04 A2963 RMK AO2 SLP034
                 T01060044 =
2018-10-20 04:53 METAR KPEO 200853Z AUTO 22009G18KT 10SM OVC060 11/04 A2964 RMK AO2 SLP036
                 T01060039 55013 =
2018-10-20 03:53 METAR KPEO 200753Z AUTO 22010G19KT 10SM OVC055 11/03 A2964 RMK AO2 SLP035
                 T01060033 =
2018-10-20 02:53 METAR KPEO 200653Z AUTO 22013G21KT 10SM FEW080 11/03 A2965 RMK AO2 SLP038
                 T01060028 =

Support USWX by starting your Amazon purchase here.